Time;durP1;ratioP1;P1;durP2;ratioP2;P2;SDS_P1;SDS_P2;PMS_P1;PMS_P2;Temp;Humidity;BMP_temperature;BMP_pressure;BME280_temperature;BME280_humidity;BME280_pressure;Samples;Min_cycle;Max_cycle;Signal;HPM_P1;HPM_P2
2022/07/01 00:01:21;;;;;;;12.30;5.68;;;;;;;17.48;53.07;99503.53;5105742;27;20405;-69
2022/07/01 00:03:49;;;;;;;10.98;4.85;;;;;;;17.42;53.76;99497.75;5086274;27;20035;-70
2022/07/01 00:06:14;;;;;;;8.55;4.70;;;;;;;17.38;53.80;99492.84;5068354;27;20035;-67
2022/07/01 00:08:38;;;;;;;7.80;4.60;;;;;;;17.34;53.68;99496.84;5105848;27;20046;-70
2022/07/01 00:11:03;;;;;;;9.07;4.65;;;;;;;17.32;53.60;99501.56;5086561;27;20056;-71
2022/07/01 00:13:28;;;;;;;9.48;5.10;;;;;;;17.29;54.32;99496.47;5088862;27;20553;-77
2022/07/01 00:15:53;;;;;;;7.38;4.95;;;;;;;17.28;54.34;99498.31;5109751;27;20046;-71
2022/07/01 00:18:18;;;;;;;7.72;4.32;;;;;;;17.25;54.13;99497.78;5074009;27;20050;-73
2022/07/01 00:20:43;;;;;;;11.50;5.35;;;;;;;17.22;54.28;99501.63;5099658;27;20501;-71
2022/07/01 00:23:07;;;;;;;16.63;6.53;;;;;;;17.20;54.22;99503.63;5077795;28;20499;-71
2022/07/01 00:25:32;;;;;;;10.15;5.25;;;;;;;17.18;54.49;99504.78;5095285;28;20039;-71
2022/07/01 00:27:57;;;;;;;11.52;4.95;;;;;;;17.16;54.19;99507.63;5077353;28;20100;-72
2022/07/01 00:30:23;;;;;;;10.63;4.88;;;;;;;17.15;54.10;99510.50;5060250;28;20043;-71
2022/07/01 00:32:48;;;;;;;10.35;5.53;;;;;;;17.13;54.07;99502.56;5095378;28;20151;-69
2022/07/01 00:35:13;;;;;;;13.43;5.38;;;;;;;17.14;54.47;99500.72;5095544;28;20066;-72
2022/07/01 00:37:38;;;;;;;12.98;5.10;;;;;;;17.14;54.09;99508.81;5077606;28;20125;-72
2022/07/01 00:40:04;;;;;;;6.00;4.53;;;;;;;17.12;54.27;99505.41;5077055;28;20047;-73
2022/07/01 00:42:29;;;;;;;13.07;4.95;;;;;;;17.13;54.34;99507.13;5095384;28;20046;-71
2022/07/01 00:44:53;;;;;;;9.57;4.78;;;;;;;17.13;54.34;99499.88;5095130;28;20043;-70
2022/07/01 00:47:18;;;;;;;10.38;5.70;;;;;;;17.14;54.09;99503.44;5077031;28;20047;-72
2022/07/01 00:49:43;;;;;;;8.25;5.07;;;;;;;17.12;54.35;99497.34;5062387;27;20408;-69
2022/07/01 00:52:09;;;;;;;10.15;5.72;;;;;;;17.11;54.46;99501.88;5097261;27;20416;-71
2022/07/01 00:54:36;;;;;;;14.98;5.10;;;;;;;17.10;54.46;99497.50;5097462;27;20049;-67
2022/07/01 00:57:07;;;;;;;13.63;5.32;;;;;;;17.12;54.20;99502.72;5079782;27;20035;-69
2022/07/01 00:59:34;;;;;;;15.60;5.30;;;;;;;17.08;54.32;99504.03;5115200;27;20110;-68
2022/07/01 01:01:59;;;;;;;6.88;4.50;;;;;;;17.05;54.69;99503.31;5115564;27;20045;-65
2022/07/01 01:04:24;;;;;;;7.45;4.63;;;;;;;17.05;54.54;99514.09;5116278;27;20043;-67
2022/07/01 01:06:49;;;;;;;7.78;4.43;;;;;;;17.06;54.88;99506.88;5112315;27;20055;-68
2022/07/01 01:09:13;;;;;;;23.02;6.03;;;;;;;17.06;54.79;99505.03;5115152;27;20038;-68
2022/07/01 01:11:38;;;;;;;10.10;4.60;;;;;;;17.07;54.23;99503.19;5115514;27;20498;-66
2022/07/01 01:14:03;;;;;;;12.57;4.72;;;;;;;17.09;55.11;99503.03;5097458;27;20464;-70
2022/07/01 01:16:28;;;;;;;9.95;4.82;;;;;;;17.09;54.86;99508.41;5115221;27;20070;-70
2022/07/01 01:18:53;;;;;;;11.73;4.90;;;;;;;17.10;55.15;99513.66;5107476;27;20062;-71
2022/07/01 01:21:18;;;;;;;11.90;4.75;;;;;;;17.13;54.61;99515.19;5086324;27;20035;-72
2022/07/01 01:23:43;;;;;;;11.45;5.30;;;;;;;17.14;55.26;99508.81;5080892;27;20039;-77
2022/07/01 01:26:19;;;;;;;8.38;5.35;;;;;;;17.21;55.07;99508.03;5063867;27;20558;-68
2022/07/01 01:28:44;;;;;;;11.10;5.40;;;;;;;17.19;55.08;99511.88;5046564;27;20394;-69
2022/07/01 01:31:10;;;;;;;8.73;4.85;;;;;;;17.21;55.02;99515.25;5098547;27;20405;-70
2022/07/01 01:33:35;;;;;;;10.50;5.43;;;;;;;17.22;54.59;99504.34;5098827;27;20422;-71
2022/07/01 01:36:00;;;;;;;13.55;5.50;;;;;;;17.24;54.67;99509.56;5098957;27;20409;-73
2022/07/01 01:38:25;;;;;;;16.45;5.60;;;;;;;17.26;55.17;99507.56;5080703;27;20421;-73
2022/07/01 01:40:50;;;;;;;9.13;5.20;;;;;;;17.28;55.19;99505.53;5099015;27;20035;-73
2022/07/01 01:43:16;;;;;;;13.38;5.10;;;;;;;17.31;55.12;99516.03;5099361;27;20043;-74
2022/07/01 01:45:40;;;;;;;10.32;5.57;;;;;;;17.34;54.88;99515.72;5099094;27;20084;-70
2022/07/01 01:48:05;;;;;;;10.18;5.32;;;;;;;17.37;54.76;99521.66;5062370;27;20099;-70
2022/07/01 01:50:30;;;;;;;14.45;4.88;;;;;;;17.40;55.00;99521.31;5080157;27;20039;-68
2022/07/01 01:52:55;;;;;;;11.48;5.03;;;;;;;17.45;54.55;99531.63;5098118;27;20061;-73
2022/07/01 01:55:20;;;;;;;11.32;5.47;;;;;;;17.51;55.04;99517.53;5099026;27;20087;-70
2022/07/01 01:57:44;;;;;;;7.57;4.57;;;;;;;17.55;54.53;99513.53;5098809;27;20410;-77
2022/07/01 02:00:10;;;;;;;10.82;5.25;;;;;;;17.61;54.87;99520.13;5099844;27;20039;-68
2022/07/01 02:02:37;;;;;;;9.98;5.00;;;;;;;17.64;54.57;99518.00;5094822;27;20050;-71
2022/07/01 02:05:05;;;;;;;10.38;4.65;;;;;;;17.70;54.00;99521.94;5078491;27;20042;-76
2022/07/01 02:07:30;;;;;;;9.35;4.72;;;;;;;17.72;54.02;99518.03;5097770;27;20501;-76
2022/07/01 02:09:55;;;;;;;9.70;4.57;;;;;;;17.77;54.52;99523.81;5079208;27;20507;-72
2022/07/01 02:12:20;;;;;;;15.02;5.38;;;;;;;17.82;54.19;99526.06;5079360;27;20051;-73
2022/07/01 02:14:45;;;;;;;14.82;5.07;;;;;;;17.87;54.05;99523.72;5079760;27;20039;-75
2022/07/01 02:17:09;;;;;;;11.55;5.60;;;;;;;17.93;54.08;99524.94;5080975;27;20075;-74
2022/07/01 02:19:34;;;;;;;14.75;5.10;;;;;;;17.99;53.91;99529.69;5101763;27;20035;-73
2022/07/01 02:21:59;;;;;;;6.82;4.18;;;;;;;18.06;53.49;99528.03;5118395;27;20034;-70
2022/07/01 02:24:24;;;;;;;7.80;4.95;;;;;;;18.14;54.17;99530.78;5118300;27;20091;-68
2022/07/01 02:26:48;;;;;;;9.93;4.78;;;;;;;18.22;53.54;99528.13;5082590;27;20095;-71
2022/07/01 02:29:13;;;;;;;8.75;4.50;;;;;;;18.31;53.55;99527.16;5098882;27;20092;-70
2022/07/01 02:31:38;;;;;;;9.85;4.97;;;;;;;18.40;53.44;99530.72;5118268;27;20039;-70
2022/07/01 02:34:03;;;;;;;14.18;4.75;;;;;;;18.47;52.55;99532.63;5118017;27;20034;-71
2022/07/01 02:36:27;;;;;;;7.90;4.30;;;;;;;18.58;52.23;99530.69;5117818;27;20049;-71
2022/07/01 02:38:52;;;;;;;8.85;4.80;;;;;;;18.67;52.56;99540.50;5117485;27;20118;-72
2022/07/01 02:41:17;;;;;;;9.50;4.90;;;;;;;18.76;51.84;99536.81;5117890;27;20038;-71
2022/07/01 02:43:42;;;;;;;11.25;5.55;;;;;;;18.85;51.50;99552.03;5099211;27;20042;-71
2022/07/01 02:46:06;;;;;;;9.40;4.47;;;;;;;18.95;51.80;99558.16;5118546;27;20133;-72
2022/07/01 02:48:31;;;;;;;10.00;4.80;;;;;;;19.04;50.25;99559.00;5119857;27;20100;-74
2022/07/01 02:50:56;;;;;;;9.73;4.30;;;;;;;19.08;49.58;99558.50;5102646;27;20043;-74
2022/07/01 02:53:21;;;;;;;5.97;3.75;;;;;;;19.16;48.46;99566.63;5101349;27;20038;-74
2022/07/01 02:55:46;;;;;;;7.88;4.00;;;;;;;19.20;48.08;99567.97;5103571;27;20053;-71
2022/07/01 02:58:10;;;;;;;12.10;4.18;;;;;;;19.25;47.45;99570.19;5122844;27;20043;-66
2022/07/01 03:00:36;;;;;;;8.13;3.75;;;;;;;19.30;47.18;99569.72;5120553;27;20137;-68
2022/07/01 03:03:01;;;;;;;8.88;4.18;;;;;;;19.25;47.38;99574.75;5101599;27;20049;-66
2022/07/01 03:05:25;;;;;;;6.15;4.07;;;;;;;19.29;47.22;99573.41;5104591;27;20047;-68
2022/07/01 03:07:50;;;;;;;4.60;3.70;;;;;;;19.31;46.57;99574.06;5117380;27;20149;-68
2022/07/01 03:10:15;;;;;;;6.57;3.35;;;;;;;19.33;46.24;99583.72;5081434;27;20212;-67
2022/07/01 03:12:40;;;;;;;6.43;3.78;;;;;;;19.36;46.09;99577.13;5098983;27;20384;-67
2022/07/01 03:15:08;;;;;;;6.22;4.68;;;;;;;19.43;45.46;99586.25;5098424;27;20038;-68
2022/07/01 03:17:34;;;;;;;6.97;4.00;;;;;;;19.40;45.26;99589.31;5098427;27;20058;-69
2022/07/01 03:20:00;;;;;;;11.75;6.60;;;;;;;19.46;44.63;99594.03;5117004;27;20043;-69
2022/07/01 03:22:27;;;;;;;6.10;3.67;;;;;;;19.48;44.14;99598.31;5081189;27;20030;-69
2022/07/01 03:24:52;;;;;;;4.90;3.13;;;;;;;19.46;43.61;99597.59;5117102;27;20547;-68
2022/07/01 03:27:18;;;;;;;6.00;3.67;;;;;;;19.45;43.39;99603.16;5121912;27;20101;-70
2022/07/01 03:29:44;;;;;;;5.75;3.40;;;;;;;19.52;43.28;99598.81;5114049;27;20071;-70
2022/07/01 03:32:09;;;;;;;5.28;3.13;;;;;;;19.62;43.14;99593.25;5089590;27;20039;-69
2022/07/01 03:34:38;;;;;;;5.47;3.17;;;;;;;19.70;42.94;99596.78;5080052;27;20073;-68
2022/07/01 03:37:04;;;;;;;9.18;3.40;;;;;;;19.78;42.63;99598.63;5097755;27;20138;-68
2022/07/01 03:39:29;;;;;;;5.43;3.30;;;;;;;19.82;42.36;99594.59;5098254;27;20034;-68
2022/07/01 03:41:54;;;;;;;9.93;5.15;;;;;;;19.81;42.23;99599.16;5116113;27;20087;-68
2022/07/01 03:44:19;;;;;;;11.48;6.57;;;;;;;19.89;42.18;99607.25;5116451;27;20041;-68
2022/07/01 03:46:44;;;;;;;6.75;4.55;;;;;;;19.88;41.93;99602.00;5116848;27;20045;-70
2022/07/01 03:49:08;;;;;;;5.18;3.58;;;;;;;19.98;42.20;99599.97;5116684;27;20046;-69
2022/07/01 03:51:33;;;;;;;6.28;3.80;;;;;;;20.06;42.22;99601.84;5098753;27;20484;-69
2022/07/01 03:56:41;;;;;;;5.30;3.85;;;;;;;20.27;41.67;99611.13;5106811;27;20087;-70
2022/07/01 03:59:06;;;;;;;4.10;3.40;;;;;;;20.38;41.07;99614.50;5109360;27;20050;-70
2022/07/01 04:01:31;;;;;;;4.45;3.47;;;;;;;20.40;40.75;99610.63;5081953;27;20047;-68
2022/07/01 04:03:56;;;;;;;6.57;4.50;;;;;;;20.51;40.83;99617.53;5099505;27;20133;-70
2022/07/01 04:06:21;;;;;;;6.78;3.83;;;;;;;20.66;40.51;99613.91;5081951;27;20523;-69
2022/07/01 04:08:47;;;;;;;5.18;3.25;;;;;;;20.82;40.45;99615.72;5119577;27;20050;-69
2022/07/01 04:11:12;;;;;;;6.93;3.30;;;;;;;20.97;40.18;99618.53;5118603;27;20049;-70
2022/07/01 04:13:37;;;;;;;4.65;3.40;;;;;;;21.02;40.16;99625.09;5117371;27;20038;-69
2022/07/01 04:16:02;;;;;;;5.00;3.72;;;;;;;21.13;40.03;99621.16;5116766;27;20576;-70
2022/07/01 04:18:28;;;;;;;6.25;3.72;;;;;;;21.27;40.08;99628.56;5080974;27;20047;-70
2022/07/01 04:23:36;;;;;;;4.97;3.95;;;;;;;21.51;38.57;99638.41;5099002;27;20043;-69
2022/07/01 04:26:02;;;;;;;5.25;4.45;;;;;;;21.43;38.40;99635.75;5098526;27;20094;-69
2022/07/01 04:28:27;;;;;;;7.65;4.60;;;;;;;21.48;38.72;99637.91;5098107;27;20492;-70
2022/07/01 04:30:51;;;;;;;6.03;3.65;;;;;;;21.54;38.41;99642.66;5080926;27;20420;-68
2022/07/01 04:33:16;;;;;;;5.65;3.78;;;;;;;21.59;37.46;99640.22;5116439;27;20039;-68
2022/07/01 04:35:41;;;;;;;7.20;3.83;;;;;;;21.62;37.59;99640.72;5117763;27;20030;-68
2022/07/01 04:38:06;;;;;;;7.22;3.45;;;;;;;21.77;37.46;99646.22;5118338;27;20066;-70
2022/07/01 04:40:30;;;;;;;6.35;3.40;;;;;;;21.87;36.73;99637.81;5099176;27;20042;-70
2022/07/01 04:42:55;;;;;;;8.73;4.20;;;;;;;21.94;36.71;99644.19;5097788;27;20050;-71
2022/07/01 04:45:20;;;;;;;3.67;3.35;;;;;;;22.16;36.93;99637.06;5097929;27;20408;-71
2022/07/01 04:47:45;;;;;;;8.45;3.75;;;;;;;22.29;34.97;99640.84;5099633;27;20091;-71
2022/07/01 04:50:10;;;;;;;4.32;3.40;;;;;;;22.44;34.45;99640.88;5085073;27;20041;-71
2022/07/01 04:52:34;;;;;;;5.45;3.38;;;;;;;22.76;34.60;99647.84;5101012;27;20046;-70
2022/07/01 04:54:59;;;;;;;3.60;2.33;;;;;;;23.04;33.34;99650.72;5105739;27;20046;-71
2022/07/01 04:57:32;;;;;;;4.15;2.63;;;;;;;23.11;31.96;99657.13;5124560;27;20069;-71
2022/07/01 04:59:56;;;;;;;6.35;2.97;;;;;;;23.23;32.16;99657.47;5105561;27;20074;-71
2022/07/01 05:02:21;;;;;;;6.40;2.88;;;;;;;23.31;31.02;99655.47;5121694;27;20047;-72
2022/07/01 05:04:46;;;;;;;6.32;2.70;;;;;;;23.42;30.76;99657.69;5101354;27;20034;-71
2022/07/01 05:07:27;;;;;;;4.47;2.72;;;;;;;23.52;30.78;99666.44;5122265;27;20107;-71
2022/07/01 05:09:52;;;;;;;3.28;2.70;;;;;;;23.71;30.50;99664.94;5121276;27;20128;-73
2022/07/01 05:12:17;;;;;;;6.97;2.80;;;;;;;23.77;30.23;99655.19;5121275;27;20153;-70
2022/07/01 05:14:41;;;;;;;15.73;6.70;;;;;;;23.78;30.31;99657.72;5119882;27;20038;-71
2022/07/01 05:17:06;;;;;;;8.93;2.97;;;;;;;23.83;30.08;99651.66;5119324;27;20057;-72
2022/07/01 05:22:14;;;;;;;6.55;3.80;;;;;;;24.37;29.96;99648.41;5119633;27;20083;-71
2022/07/01 05:24:39;;;;;;;5.18;2.90;;;;;;;24.59;29.67;99650.88;5103783;27;20049;-69
2022/07/01 05:27:04;;;;;;;3.65;2.30;;;;;;;24.83;29.13;99649.53;5104892;27;20042;-69
2022/07/01 05:29:30;;;;;;;6.25;2.40;;;;;;;24.89;28.70;99651.47;5100937;27;20038;-69
2022/07/01 05:31:55;;;;;;;5.68;3.15;;;;;;;25.01;28.69;99649.03;5101026;27;20087;-68
2022/07/01 05:34:20;;;;;;;9.45;3.50;;;;;;;24.95;28.62;99650.69;5100488;27;20042;-69
2022/07/01 05:36:45;;;;;;;7.75;2.80;;;;;;;24.99;28.57;99651.13;5100300;27;20069;-70
2022/07/01 05:39:10;;;;;;;3.47;3.10;;;;;;;25.18;28.72;99646.78;5080898;27;20074;-71
2022/07/01 05:41:35;;;;;;;5.22;3.22;;;;;;;25.51;28.36;99647.75;5098225;27;20034;-71
2022/07/01 05:44:00;;;;;;;8.63;3.67;;;;;;;25.89;27.59;99650.81;5099375;27;20129;-69
2022/07/01 05:46:24;;;;;;;6.68;2.70;;;;;;;26.16;26.71;99654.41;5098484;27;20063;-69
2022/07/01 05:48:49;;;;;;;2.70;2.17;;;;;;;26.39;27.02;99654.88;5081600;27;20512;-70
2022/07/01 05:51:14;;;;;;;7.45;2.85;;;;;;;26.68;26.49;99659.03;5098667;27;20043;-69
2022/07/01 05:53:38;;;;;;;4.82;3.38;;;;;;;27.14;26.30;99658.09;5079685;27;20542;-69
2022/07/01 05:56:04;;;;;;;4.40;2.80;;;;;;;27.62;25.85;99654.94;5080258;27;20066;-69
2022/07/01 05:58:28;;;;;;;7.20;3.40;;;;;;;28.13;24.63;99652.91;5098381;27;20576;-69
2022/07/01 06:00:53;;;;;;;8.25;3.13;;;;;;;28.62;24.41;99655.88;5079496;27;20035;-70
2022/07/01 06:03:18;;;;;;;6.20;2.80;;;;;;;29.19;22.68;99651.91;5097870;27;20520;-71
2022/07/01 06:05:43;;;;;;;4.13;3.17;;;;;;;29.77;22.08;99660.44;5097606;27;20051;-70
2022/07/01 06:08:09;;;;;;;8.48;3.80;;;;;;;30.39;21.54;99665.63;5079935;27;20568;-70
2022/07/01 06:10:35;;;;;;;9.13;2.88;;;;;;;31.07;20.65;99660.34;5079188;27;20062;-71
2022/07/01 06:13:00;;;;;;;4.85;2.97;;;;;;;31.69;20.22;99658.69;5098110;27;20043;-70
2022/07/01 06:15:25;;;;;;;11.00;3.63;;;;;;;32.26;19.56;99663.31;5079322;27;20413;-71
2022/07/01 06:17:51;;;;;;;10.40;2.55;;;;;;;32.78;19.05;99666.63;5097981;27;20157;-71
2022/07/01 06:20:16;;;;;;;7.35;3.55;;;;;;;33.34;18.58;99661.91;5062593;27;20035;-72
2022/07/01 06:22:41;;;;;;;6.68;2.90;;;;;;;33.71;17.92;99665.66;5079297;27;20043;-71
2022/07/01 06:25:07;;;;;;;7.15;3.30;;;;;;;34.12;17.84;99661.38;5098672;27;20053;-71
2022/07/01 06:27:32;;;;;;;6.00;3.65;;;;;;;34.65;17.66;99656.88;5079879;27;20035;-71
2022/07/01 06:29:56;;;;;;;20.63;4.47;;;;;;;35.10;16.34;99666.59;5062627;27;20046;-69
2022/07/01 06:32:21;;;;;;;23.25;4.57;;;;;;;35.53;16.35;99680.09;5097578;27;20114;-69
2022/07/01 06:34:48;;;;;;;6.90;3.10;;;;;;;35.79;15.67;99678.25;5061984;27;20035;-70
2022/07/01 06:37:13;;;;;;;19.33;4.65;;;;;;;35.98;15.31;99684.13;5045372;27;20039;-70
2022/07/01 06:39:38;;;;;;;12.00;4.18;;;;;;;36.01;14.83;99678.00;5097804;27;20035;-70
2022/07/01 06:42:03;;;;;;;14.23;4.53;;;;;;;36.28;14.42;99683.34;5079434;27;20042;-70
2022/07/01 06:44:28;;;;;;;27.63;5.45;;;;;;;36.44;14.59;99686.97;5097423;27;20459;-70
2022/07/01 06:46:52;;;;;;;24.30;7.13;;;;;;;36.78;14.55;99688.09;5079163;27;20069;-71
2022/07/01 06:49:17;;;;;;;22.67;4.82;;;;;;;37.23;14.50;99691.91;5078908;27;20035;-70
2022/07/01 06:51:42;;;;;;;7.90;3.83;;;;;;;37.22;14.60;99698.56;5061785;27;20035;-72
2022/07/01 06:54:07;;;;;;;6.13;3.75;;;;;;;36.72;13.93;99708.63;5097420;27;20047;-70
2022/07/01 06:56:32;;;;;;;11.60;4.30;;;;;;;36.18;14.27;99695.25;5078772;27;20078;-71
2022/07/01 06:58:57;;;;;;;11.38;4.05;;;;;;;35.85;14.80;99698.53;5078895;27;20043;-70
2022/07/01 07:01:22;;;;;;;7.05;3.45;;;;;;;35.63;14.58;99690.41;5097236;27;20043;-71
2022/07/01 07:03:47;;;;;;;12.52;4.15;;;;;;;35.82;14.66;99699.06;5097273;27;20167;-71
2022/07/01 07:06:11;;;;;;;8.45;4.90;;;;;;;35.99;13.94;99696.91;5078716;27;20035;-71
2022/07/01 07:08:36;;;;;;;6.13;3.50;;;;;;;35.96;13.62;99687.19;5097256;27;20081;-71
2022/07/01 07:11:02;;;;;;;5.38;3.50;;;;;;;35.93;13.82;99703.53;5078596;27;20177;-69
2022/07/01 07:13:27;;;;;;;10.63;3.65;;;;;;;35.78;13.23;99690.44;5096941;27;20194;-69
2022/07/01 07:15:52;;;;;;;10.75;3.63;;;;;;;35.68;13.32;99691.22;5060633;28;20146;-68
2022/07/01 07:18:17;;;;;;;11.40;4.03;;;;;;;35.80;13.48;99695.72;5096505;27;20038;-70
2022/07/01 07:20:42;;;;;;;9.18;4.55;;;;;;;36.11;13.29;99700.25;5061212;27;20508;-71
2022/07/01 07:23:07;;;;;;;8.55;3.65;;;;;;;36.46;13.22;99693.09;5078168;27;20063;-70
2022/07/01 07:25:32;;;;;;;11.20;4.55;;;;;;;36.72;11.99;99697.53;5078140;27;20119;-70
2022/07/01 07:27:56;;;;;;;12.27;5.28;;;;;;;37.08;12.56;99704.69;5080561;27;20128;-69
2022/07/01 07:30:21;;;;;;;10.07;4.07;;;;;;;37.42;12.05;99707.66;5086559;27;20103;-72
2022/07/01 07:32:46;;;;;;;12.75;3.90;;;;;;;37.45;11.11;99711.84;5079193;27;20043;-71
2022/07/01 07:35:11;;;;;;;4.13;3.75;;;;;;;36.41;11.51;99713.34;5061304;27;20095;-70
2022/07/01 07:37:36;;;;;;;3.97;3.45;;;;;;;36.08;12.12;99716.63;5096294;27;20051;-70
2022/07/01 07:40:03;;;;;;;6.85;4.63;;;;;;;35.40;12.27;99699.19;5061051;27;20034;-71
2022/07/01 07:42:28;;;;;;;4.82;3.53;;;;;;;35.00;12.61;99706.13;5078325;27;20071;-70
2022/07/01 07:44:53;;;;;;;9.50;3.90;;;;;;;35.59;12.14;99705.91;5080402;27;20074;-69
2022/07/01 07:47:17;;;;;;;9.07;3.85;;;;;;;36.90;11.79;99704.47;5098797;27;20050;-71
2022/07/01 07:49:42;;;;;;;5.90;3.53;;;;;;;37.72;10.62;99711.44;5080769;27;20038;-75
2022/07/01 07:52:07;;;;;;;9.07;4.13;;;;;;;38.47;10.96;99712.94;5097826;27;20497;-77
2022/07/01 07:54:32;;;;;;;8.65;4.20;;;;;;;38.53;10.28;99718.47;5078304;27;20074;-75
2022/07/01 07:56:56;;;;;;;10.60;4.75;;;;;;;38.46;10.20;99724.34;5079241;27;20133;-73
2022/07/01 07:59:21;;;;;;;13.82;4.30;;;;;;;37.96;10.16;99720.78;5095585;27;20035;-73
2022/07/01 08:01:46;;;;;;;4.85;4.00;;;;;;;37.90;10.34;99726.66;5096313;27;20043;-71
2022/07/01 08:04:11;;;;;;;5.10;3.83;;;;;;;37.71;10.55;99732.88;5060783;28;20031;-72
2022/07/01 08:06:36;;;;;;;6.72;3.97;;;;;;;38.00;10.08;99735.78;5061134;28;20041;-71
2022/07/01 08:09:00;;;;;;;4.72;3.80;;;;;;;38.15;9.82;99735.69;5077577;27;20039;-73
2022/07/01 08:11:25;;;;;;;6.60;4.50;;;;;;;38.61;10.16;99734.56;5095300;27;20066;-72
2022/07/01 08:13:50;;;;;;;19.67;4.93;;;;;;;38.77;9.62;99733.31;5060398;28;20039;-72
2022/07/01 08:16:15;;;;;;;5.32;4.82;;;;;;;38.98;9.68;99725.59;5059460;28;20038;-72
2022/07/01 08:18:39;;;;;;;8.35;4.07;;;;;;;39.33;9.30;99729.97;5060334;28;20050;-72
2022/07/01 08:21:04;;;;;;;7.68;4.30;;;;;;;40.01;9.59;99735.28;5097296;27;20042;-72
2022/07/01 08:23:29;;;;;;;5.22;4.72;;;;;;;40.52;9.40;99738.97;5135648;27;20072;-73
2022/07/01 08:25:53;;;;;;;13.02;6.07;;;;;;;40.76;10.05;99740.81;5135827;27;20038;-71
2022/07/01 08:28:18;;;;;;;8.80;5.10;;;;;;;40.69;9.04;99757.13;5115851;27;20042;-71
2022/07/01 08:30:43;;;;;;;6.88;6.18;;;;;;;40.86;9.51;99752.66;5122733;27;20038;-72
2022/07/01 08:33:10;;;;;;;7.60;5.03;;;;;;;41.02;9.14;99746.78;5121136;27;20046;-72
2022/07/01 08:35:35;;;;;;;6.68;4.90;;;;;;;40.89;9.05;99740.03;5102881;27;20058;-72
2022/07/01 08:38:00;;;;;;;12.25;5.25;;;;;;;40.95;9.43;99742.44;5128281;27;20101;-72
2022/07/01 08:40:29;;;;;;;9.32;5.40;;;;;;;41.55;9.43;99747.19;5099768;27;20046;-71
2022/07/01 08:43:05;;;;;;;10.18;4.78;;;;;;;41.62;8.34;99756.84;5115031;27;20038;-72
2022/07/01 08:45:33;;;;;;;7.80;4.75;;;;;;;41.80;8.87;99757.84;5133395;27;20072;-72
2022/07/01 08:48:00;;;;;;;7.35;4.75;;;;;;;42.52;7.98;99752.31;5115944;27;20046;-74
2022/07/01 08:50:26;;;;;;;11.07;6.28;;;;;;;43.58;8.12;99750.66;5113204;27;20038;-73
2022/07/01 08:52:52;;;;;;;8.40;5.88;;;;;;;44.73;7.51;99767.00;5120399;27;20050;-72
2022/07/01 08:55:17;;;;;;;10.07;6.05;;;;;;;45.81;7.29;99762.88;5133468;27;20119;-74
2022/07/01 08:57:42;;;;;;;12.55;7.15;;;;;;;46.88;6.58;99767.84;5133574;27;20046;-73
2022/07/01 09:00:08;;;;;;;12.27;7.68;;;;;;;47.85;6.05;99767.22;5114236;27;20038;-70
2022/07/01 09:03:02;;;;;;;11.25;10.07;;;;;;;49.30;6.02;99779.22;5121971;27;20421;-69
2022/07/01 09:05:29;;;;;;;12.68;9.32;;;;;;;48.62;5.37;99774.47;5102129;27;20050;-69
2022/07/01 09:08:05;;;;;;;10.50;9.25;;;;;;;48.96;5.59;99772.22;5101211;27;20532;-69
2022/07/01 09:10:33;;;;;;;12.70;11.45;;;;;;;49.19;5.54;99761.13;5083832;27;20060;-71
2022/07/01 09:13:04;;;;;;;13.75;12.13;;;;;;;50.11;5.22;99777.59;5100529;27;20509;-69
2022/07/01 09:15:31;;;;;;;14.63;13.57;;;;;;;50.42;4.66;99771.81;5101056;27;20126;-69
2022/07/01 09:18:03;;;;;;;18.20;16.80;;;;;;;50.68;5.19;99774.03;5083877;27;20049;-72
2022/07/01 09:20:31;;;;;;;15.60;14.38;;;;;;;51.17;4.45;99776.16;5120079;27;20561;-71
2022/07/01 09:23:12;;;;;;;16.33;14.75;;;;;;;51.62;4.18;99766.84;5121219;27;20450;-70
2022/07/01 09:25:43;;;;;;;17.98;16.80;;;;;;;52.04;4.03;99777.28;5122736;27;20034;-70
2022/07/01 09:28:13;;;;;;;22.08;20.73;;;;;;;52.12;4.19;99776.97;5109778;27;20042;-71
2022/07/01 09:30:39;;;;;;;23.75;21.73;;;;;;;52.06;4.19;99780.53;5128779;27;20062;-74
2022/07/01 09:33:11;;;;;;;23.23;21.77;;;;;;;52.29;4.03;99780.47;5127265;27;20043;-70
2022/07/01 09:35:36;;;;;;;;;;;;;;;54.32;4.53;99789.78;5127815;27;20485;-70
2022/07/01 09:38:01;;;;;;;27.98;25.52;;;;;;;53.27;3.75;99792.25;5106002;27;19919;-69
2022/07/01 09:40:25;;;;;;;24.90;23.25;;;;;;;52.03;3.62;99784.97;5122322;27;20045;-71
2022/07/01 09:42:50;;;;;;;25.90;24.40;;;;;;;51.46;4.00;99781.19;5085004;27;20457;-70
2022/07/01 09:45:15;;;;;;;23.55;21.80;;;;;;;51.76;4.20;99781.28;5118978;27;20042;-70
2022/07/01 09:47:42;;;;;;;22.08;20.60;;;;;;;51.76;4.37;99784.13;5118567;27;20051;-70
2022/07/01 09:50:08;;;;;;;24.50;22.88;;;;;;;52.04;3.58;99792.28;5118667;27;20404;-71
2022/07/01 09:52:34;;;;;;;22.23;20.80;;;;;;;51.54;3.48;99782.13;5118723;27;20521;-73
2022/07/01 09:54:58;;;;;;;23.67;20.70;;;;;;;49.90;3.57;99779.91;5083044;27;20125;-73
2022/07/01 09:57:23;;;;;;;15.65;14.73;;;;;;;48.34;3.66;99770.78;5118547;27;20183;-73
2022/07/01 09:59:49;;;;;;;13.57;12.68;;;;;;;47.43;4.44;99781.53;5118654;27;20042;-74
2022/07/01 10:02:17;;;;;;;17.77;12.40;;;;;;;46.70;4.91;99772.03;5119191;27;20515;-73
2022/07/01 10:05:09;;;;;;;11.52;9.98;;;;;;;47.06;5.17;99771.34;5118763;27;20429;-73
2022/07/01 10:07:49;;;;;;;10.40;9.55;;;;;;;46.86;5.23;99762.56;5078868;27;20187;-73
2022/07/01 10:10:42;;;;;;;10.82;9.80;;;;;;;47.83;5.16;99766.75;5099625;27;20103;-74
2022/07/01 10:13:10;;;;;;;12.70;11.40;;;;;;;48.47;4.82;99771.59;5100334;27;20047;-72
2022/07/01 10:15:35;;;;;;;14.88;13.52;;;;;;;49.60;4.74;99766.25;5083750;27;20421;-72
2022/07/01 10:18:00;;;;;;;15.35;14.43;;;;;;;50.46;3.96;99769.88;5119784;27;20042;-73
2022/07/01 10:20:27;;;;;;;15.35;14.15;;;;;;;50.68;3.70;99770.34;5119495;27;20050;-73
2022/07/01 10:23:01;;;;;;;17.00;15.73;;;;;;;51.67;3.72;99768.56;5118396;27;20042;-73
2022/07/01 10:25:46;;;;;;;22.13;20.38;;;;;;;52.53;3.97;99786.47;5118737;27;20287;-73
2022/07/01 10:28:23;;;;;;;24.02;22.15;;;;;;;52.49;3.46;99764.88;5101037;27;20444;-74
2022/07/01 10:30:53;;;;;;;21.33;19.92;;;;;;;52.91;3.40;99779.66;5120664;27;20061;-74
2022/07/01 10:33:28;;;;;;;24.70;23.02;;;;;;;52.89;3.27;99782.06;5119108;27;20050;-73
2022/07/01 10:35:53;;;;;;;21.85;20.25;;;;;;;50.22;3.66;99781.53;5082098;27;20033;-73
2022/07/01 10:38:18;;;;;;;13.95;13.05;;;;;;;46.36;5.25;99770.31;5082011;27;20050;-74
2022/07/01 10:40:48;;;;;;;8.50;7.68;;;;;;;42.75;6.83;99761.56;5118861;27;20050;-73
2022/07/01 10:43:33;;;;;;;13.85;6.82;;;;;;;39.45;8.72;99741.56;5099341;27;20046;-73
2022/07/01 10:45:57;;;;;;;5.88;4.80;;;;;;;36.63;9.02;99752.78;5099423;27;20039;-75
2022/07/01 10:48:24;;;;;;;4.90;3.97;;;;;;;34.15;10.89;99734.75;5099842;27;20137;-77
2022/07/01 10:50:50;;;;;;;4.35;3.92;;;;;;;32.45;12.14;99747.50;5100066;27;20052;-75
2022/07/01 10:53:15;;;;;;;5.72;3.80;;;;;;;31.14;13.24;99735.47;5118064;27;20074;-73
2022/07/01 10:55:53;;;;;;;13.63;4.38;;;;;;;30.51;13.47;99740.75;5119252;27;20070;-70
2022/07/01 10:58:18;;;;;;;8.63;3.72;;;;;;;29.37;13.89;99736.16;5117924;27;20489;-74
2022/07/01 11:00:45;;;;;;;9.15;3.45;;;;;;;28.59;15.35;99733.13;5101413;27;20042;-71
2022/07/01 11:03:15;;;;;;;7.07;3.80;;;;;;;28.09;15.52;99735.81;5118558;27;20501;-71
2022/07/01 11:05:42;;;;;;;8.32;3.67;;;;;;;27.47;15.87;99734.63;5099825;27;20042;-71
2022/07/01 11:08:08;;;;;;;5.60;3.25;;;;;;;26.92;16.86;99730.53;5117776;27;20132;-70
2022/07/01 11:10:33;;;;;;;6.97;3.30;;;;;;;26.54;17.33;99730.34;5099318;27;20059;-69
2022/07/01 11:13:00;;;;;;;6.28;3.83;;;;;;;26.34;16.95;99717.53;5076539;27;20039;-68
2022/07/01 11:15:28;;;;;;;5.13;3.50;;;;;;;25.66;17.95;99715.88;5096672;27;20074;-69
2022/07/01 11:17:55;;;;;;;3.83;2.95;;;;;;;25.27;17.75;99722.00;5096656;27;20043;-68
2022/07/01 11:20:23;;;;;;;7.22;2.92;;;;;;;24.88;19.08;99719.84;5077784;27;20107;-68
2022/07/01 11:22:47;;;;;;;10.07;3.80;;;;;;;24.64;19.68;99720.31;5096594;27;20494;-70
2022/07/01 11:25:17;;;;;;;5.82;3.17;;;;;;;24.57;18.95;99723.84;5060825;27;20505;-70
2022/07/01 11:27:46;;;;;;;6.80;3.15;;;;;;;24.53;18.59;99721.69;5095997;27;20131;-70
2022/07/01 11:30:12;;;;;;;9.38;3.40;;;;;;;24.10;19.40;99729.88;5078243;27;20552;-69
2022/07/01 11:32:41;;;;;;;7.55;2.92;;;;;;;23.93;19.46;99725.69;5061316;27;20505;-69
2022/07/01 11:40:33;;;;;;;8.48;2.90;;;;;;;23.45;19.37;99719.91;5096524;27;20603;-66